sensor_id;sensor_type;location;lat;lon;timestamp;P1;durP1;ratioP1;P2;durP2;ratioP2
65879;SDS011;52661;51.364;6.054;2023-06-14T00:00:38;6.22;;;4.00;;
65879;SDS011;52661;51.364;6.054;2023-06-14T00:03:08;7.88;;;4.10;;
65879;SDS011;52661;51.364;6.054;2023-06-14T00:05:35;9.18;;;4.30;;
65879;SDS011;52661;51.364;6.054;2023-06-14T00:08:05;7.43;;;3.80;;
65879;SDS011;52661;51.364;6.054;2023-06-14T00:10:33;6.88;;;4.05;;
65879;SDS011;52661;51.364;6.054;2023-06-14T00:13:00;7.30;;;4.72;;
65879;SDS011;52661;51.364;6.054;2023-06-14T00:15:30;8.07;;;4.60;;
65879;SDS011;52661;51.364;6.054;2023-06-14T00:17:56;11.05;;;4.32;;
65879;SDS011;52661;51.364;6.054;2023-06-14T00:20:25;9.65;;;5.00;;
65879;SDS011;52661;51.364;6.054;2023-06-14T00:22:52;9.07;;;4.18;;
65879;SDS011;52661;51.364;6.054;2023-06-14T00:25:17;9.75;;;4.47;;
65879;SDS011;52661;51.364;6.054;2023-06-14T00:27:42;10.25;;;4.30;;
65879;SDS011;52661;51.364;6.054;2023-06-14T00:30:08;6.53;;;4.05;;
65879;SDS011;52661;51.364;6.054;2023-06-14T00:32:33;8.00;;;3.85;;
65879;SDS011;52661;51.364;6.054;2023-06-14T00:34:59;6.28;;;3.60;;
65879;SDS011;52661;51.364;6.054;2023-06-14T00:37:24;7.32;;;4.03;;
65879;SDS011;52661;51.364;6.054;2023-06-14T00:39:50;8.75;;;3.70;;
65879;SDS011;52661;51.364;6.054;2023-06-14T00:42:27;7.45;;;3.88;;
65879;SDS011;52661;51.364;6.054;2023-06-14T00:44:53;7.90;;;4.05;;
65879;SDS011;52661;51.364;6.054;2023-06-14T00:47:19;8.98;;;4.60;;
65879;SDS011;52661;51.364;6.054;2023-06-14T00:49:45;8.20;;;3.80;;
65879;SDS011;52661;51.364;6.054;2023-06-14T00:52:12;8.55;;;4.00;;
65879;SDS011;52661;51.364;6.054;2023-06-14T00:54:40;9.93;;;4.53;;
65879;SDS011;52661;51.364;6.054;2023-06-14T00:57:06;7.93;;;3.53;;
65879;SDS011;52661;51.364;6.054;2023-06-14T00:59:32;8.77;;;4.38;;
65879;SDS011;52661;51.364;6.054;2023-06-14T01:01:58;8.23;;;4.22;;
65879;SDS011;52661;51.364;6.054;2023-06-14T01:04:23;8.75;;;3.60;;
65879;SDS011;52661;51.364;6.054;2023-06-14T01:06:53;8.82;;;4.43;;
65879;SDS011;52661;51.364;6.054;2023-06-14T01:09:36;7.13;;;4.30;;
65879;SDS011;52661;51.364;6.054;2023-06-14T01:12:11;7.70;;;4.10;;
65879;SDS011;52661;51.364;6.054;2023-06-14T01:14:41;9.40;;;3.65;;
65879;SDS011;52661;51.364;6.054;2023-06-14T01:17:07;6.82;;;3.63;;
65879;SDS011;52661;51.364;6.054;2023-06-14T01:19:41;6.57;;;3.70;;
65879;SDS011;52661;51.364;6.054;2023-06-14T01:22:07;8.30;;;3.80;;
65879;SDS011;52661;51.364;6.054;2023-06-14T01:24:34;10.60;;;4.70;;
65879;SDS011;52661;51.364;6.054;2023-06-14T01:26:59;7.68;;;4.03;;
65879;SDS011;52661;51.364;6.054;2023-06-14T01:29:27;6.50;;;3.67;;
65879;SDS011;52661;51.364;6.054;2023-06-14T01:31:57;9.68;;;3.85;;
65879;SDS011;52661;51.364;6.054;2023-06-14T01:34:24;7.55;;;3.53;;
65879;SDS011;52661;51.364;6.054;2023-06-14T01:36:49;7.82;;;3.50;;
65879;SDS011;52661;51.364;6.054;2023-06-14T01:39:15;10.57;;;4.20;;
65879;SDS011;52661;51.364;6.054;2023-06-14T01:41:42;8.02;;;3.85;;
65879;SDS011;52661;51.364;6.054;2023-06-14T01:44:09;5.30;;;3.50;;
65879;SDS011;52661;51.364;6.054;2023-06-14T01:46:36;7.93;;;4.18;;
65879;SDS011;52661;51.364;6.054;2023-06-14T01:49:01;6.65;;;3.63;;
65879;SDS011;52661;51.364;6.054;2023-06-14T01:51:27;5.88;;;2.85;;
65879;SDS011;52661;51.364;6.054;2023-06-14T01:53:53;8.57;;;3.45;;
65879;SDS011;52661;51.364;6.054;2023-06-14T01:56:18;7.32;;;3.15;;
65879;SDS011;52661;51.364;6.054;2023-06-14T01:58:43;6.20;;;3.22;;
65879;SDS011;52661;51.364;6.054;2023-06-14T02:01:09;7.70;;;4.60;;
65879;SDS011;52661;51.364;6.054;2023-06-14T02:03:36;7.80;;;4.22;;
65879;SDS011;52661;51.364;6.054;2023-06-14T02:06:03;6.63;;;3.45;;
65879;SDS011;52661;51.364;6.054;2023-06-14T02:08:28;5.50;;;2.80;;
65879;SDS011;52661;51.364;6.054;2023-06-14T02:10:54;6.15;;;2.92;;
65879;SDS011;52661;51.364;6.054;2023-06-14T02:13:19;7.75;;;3.17;;
65879;SDS011;52661;51.364;6.054;2023-06-14T02:15:44;7.80;;;3.10;;
65879;SDS011;52661;51.364;6.054;2023-06-14T02:18:10;5.95;;;3.10;;
65879;SDS011;52661;51.364;6.054;2023-06-14T02:20:36;6.63;;;3.67;;
65879;SDS011;52661;51.364;6.054;2023-06-14T02:23:01;6.65;;;3.08;;
65879;SDS011;52661;51.364;6.054;2023-06-14T02:25:27;6.95;;;3.53;;
65879;SDS011;52661;51.364;6.054;2023-06-14T02:27:53;5.03;;;3.22;;
65879;SDS011;52661;51.364;6.054;2023-06-14T02:30:20;7.07;;;3.63;;
65879;SDS011;52661;51.364;6.054;2023-06-14T02:32:45;8.23;;;3.60;;
65879;SDS011;52661;51.364;6.054;2023-06-14T02:35:11;7.75;;;4.00;;
65879;SDS011;52661;51.364;6.054;2023-06-14T02:37:38;10.70;;;4.05;;
65879;SDS011;52661;51.364;6.054;2023-06-14T02:40:04;5.72;;;3.35;;
65879;SDS011;52661;51.364;6.054;2023-06-14T02:44:56;7.23;;;3.67;;
65879;SDS011;52661;51.364;6.054;2023-06-14T02:47:21;5.97;;;3.45;;
65879;SDS011;52661;51.364;6.054;2023-06-14T02:49:47;7.07;;;3.63;;
65879;SDS011;52661;51.364;6.054;2023-06-14T02:52:12;6.20;;;3.85;;
65879;SDS011;52661;51.364;6.054;2023-06-14T02:54:38;8.15;;;3.78;;
65879;SDS011;52661;51.364;6.054;2023-06-14T02:57:03;5.95;;;3.72;;
65879;SDS011;52661;51.364;6.054;2023-06-14T02:59:29;6.28;;;3.53;;
65879;SDS011;52661;51.364;6.054;2023-06-14T03:01:54;7.60;;;3.70;;
65879;SDS011;52661;51.364;6.054;2023-06-14T03:04:20;7.15;;;4.95;;
65879;SDS011;52661;51.364;6.054;2023-06-14T03:06:45;7.93;;;3.92;;
65879;SDS011;52661;51.364;6.054;2023-06-14T03:09:15;6.88;;;3.60;;
65879;SDS011;52661;51.364;6.054;2023-06-14T03:11:41;6.95;;;3.63;;
65879;SDS011;52661;51.364;6.054;2023-06-14T03:14:06;7.20;;;3.42;;
65879;SDS011;52661;51.364;6.054;2023-06-14T03:16:33;7.90;;;3.50;;
65879;SDS011;52661;51.364;6.054;2023-06-14T03:18:58;5.53;;;3.15;;
65879;SDS011;52661;51.364;6.054;2023-06-14T03:21:24;10.57;;;4.40;;
65879;SDS011;52661;51.364;6.054;2023-06-14T03:23:50;5.75;;;3.00;;
65879;SDS011;52661;51.364;6.054;2023-06-14T03:26:17;6.80;;;3.63;;
65879;SDS011;52661;51.364;6.054;2023-06-14T03:28:46;7.38;;;4.82;;
65879;SDS011;52661;51.364;6.054;2023-06-14T03:31:13;7.88;;;3.33;;
65879;SDS011;52661;51.364;6.054;2023-06-14T03:33:39;11.85;;;4.03;;
65879;SDS011;52661;51.364;6.054;2023-06-14T03:36:04;10.85;;;3.70;;
65879;SDS011;52661;51.364;6.054;2023-06-14T03:38:30;6.45;;;3.72;;
65879;SDS011;52661;51.364;6.054;2023-06-14T03:40:56;6.63;;;3.88;;
65879;SDS011;52661;51.364;6.054;2023-06-14T03:43:21;6.38;;;3.35;;
65879;SDS011;52661;51.364;6.054;2023-06-14T03:45:46;10.85;;;3.72;;
65879;SDS011;52661;51.364;6.054;2023-06-14T03:48:12;7.25;;;3.58;;
65879;SDS011;52661;51.364;6.054;2023-06-14T03:50:37;8.95;;;4.35;;
65879;SDS011;52661;51.364;6.054;2023-06-14T03:53:03;7.82;;;3.72;;
65879;SDS011;52661;51.364;6.054;2023-06-14T03:55:29;7.90;;;3.90;;
65879;SDS011;52661;51.364;6.054;2023-06-14T03:57:56;9.98;;;3.65;;
65879;SDS011;52661;51.364;6.054;2023-06-14T04:00:22;11.82;;;4.18;;
65879;SDS011;52661;51.364;6.054;2023-06-14T04:02:48;7.13;;;3.30;;
65879;SDS011;52661;51.364;6.054;2023-06-14T04:05:13;9.73;;;4.82;;
65879;SDS011;52661;51.364;6.054;2023-06-14T04:07:41;8.60;;;3.33;;
65879;SDS011;52661;51.364;6.054;2023-06-14T04:10:10;6.72;;;3.08;;
65879;SDS011;52661;51.364;6.054;2023-06-14T04:12:39;6.75;;;3.17;;
65879;SDS011;52661;51.364;6.054;2023-06-14T04:15:05;9.52;;;2.78;;
65879;SDS011;52661;51.364;6.054;2023-06-14T04:17:31;7.07;;;2.88;;
65879;SDS011;52661;51.364;6.054;2023-06-14T04:20:00;5.80;;;3.00;;
65879;SDS011;52661;51.364;6.054;2023-06-14T04:22:28;8.52;;;3.28;;
65879;SDS011;52661;51.364;6.054;2023-06-14T04:24:57;6.18;;;3.22;;
65879;SDS011;52661;51.364;6.054;2023-06-14T04:27:23;7.15;;;3.03;;
65879;SDS011;52661;51.364;6.054;2023-06-14T04:29:54;6.05;;;3.53;;
65879;SDS011;52661;51.364;6.054;2023-06-14T04:32:25;7.03;;;3.08;;
65879;SDS011;52661;51.364;6.054;2023-06-14T04:34:54;7.93;;;2.75;;
65879;SDS011;52661;51.364;6.054;2023-06-14T04:37:24;6.40;;;3.10;;
65879;SDS011;52661;51.364;6.054;2023-06-14T04:39:53;8.75;;;2.97;;
65879;SDS011;52661;51.364;6.054;2023-06-14T04:42:20;5.97;;;2.83;;
65879;SDS011;52661;51.364;6.054;2023-06-14T04:44:49;6.88;;;3.28;;
65879;SDS011;52661;51.364;6.054;2023-06-14T04:47:17;5.40;;;3.00;;
65879;SDS011;52661;51.364;6.054;2023-06-14T04:49:43;5.32;;;2.70;;
65879;SDS011;52661;51.364;6.054;2023-06-14T04:52:08;5.15;;;2.95;;
65879;SDS011;52661;51.364;6.054;2023-06-14T04:54:35;6.20;;;2.70;;
65879;SDS011;52661;51.364;6.054;2023-06-14T04:57:03;11.48;;;3.40;;
65879;SDS011;52661;51.364;6.054;2023-06-14T04:59:31;9.15;;;2.80;;
65879;SDS011;52661;51.364;6.054;2023-06-14T05:01:58;7.30;;;2.78;;
65879;SDS011;52661;51.364;6.054;2023-06-14T05:04:25;5.25;;;2.80;;
65879;SDS011;52661;51.364;6.054;2023-06-14T05:06:52;9.35;;;2.65;;
65879;SDS011;52661;51.364;6.054;2023-06-14T05:09:19;4.80;;;2.40;;
65879;SDS011;52661;51.364;6.054;2023-06-14T05:11:46;5.35;;;2.72;;
65879;SDS011;52661;51.364;6.054;2023-06-14T05:14:12;6.53;;;2.85;;
65879;SDS011;52661;51.364;6.054;2023-06-14T05:16:38;7.82;;;2.53;;
65879;SDS011;52661;51.364;6.054;2023-06-14T05:19:04;6.68;;;2.63;;
65879;SDS011;52661;51.364;6.054;2023-06-14T05:21:30;5.65;;;2.45;;
65879;SDS011;52661;51.364;6.054;2023-06-14T05:23:57;5.20;;;2.50;;
65879;SDS011;52661;51.364;6.054;2023-06-14T05:26:22;5.75;;;2.80;;
65879;SDS011;52661;51.364;6.054;2023-06-14T05:28:56;6.55;;;2.42;;
65879;SDS011;52661;51.364;6.054;2023-06-14T05:31:23;6.45;;;2.45;;
65879;SDS011;52661;51.364;6.054;2023-06-14T05:33:49;9.68;;;2.60;;
65879;SDS011;52661;51.364;6.054;2023-06-14T05:36:15;8.38;;;2.85;;
65879;SDS011;52661;51.364;6.054;2023-06-14T05:38:41;7.25;;;2.15;;
65879;SDS011;52661;51.364;6.054;2023-06-14T05:41:06;6.75;;;2.03;;
65879;SDS011;52661;51.364;6.054;2023-06-14T05:43:31;6.57;;;3.47;;
65879;SDS011;52661;51.364;6.054;2023-06-14T05:45:57;6.15;;;1.90;;
65879;SDS011;52661;51.364;6.054;2023-06-14T05:48:22;7.65;;;2.53;;
65879;SDS011;52661;51.364;6.054;2023-06-14T05:50:48;6.03;;;1.88;;
65879;SDS011;52661;51.364;6.054;2023-06-14T05:53:13;8.18;;;2.00;;
65879;SDS011;52661;51.364;6.054;2023-06-14T05:55:38;6.38;;;1.90;;
65879;SDS011;52661;51.364;6.054;2023-06-14T05:58:04;5.80;;;2.25;;
65879;SDS011;52661;51.364;6.054;2023-06-14T06:00:29;7.45;;;2.28;;
65879;SDS011;52661;51.364;6.054;2023-06-14T06:02:55;4.60;;;2.17;;
65879;SDS011;52661;51.364;6.054;2023-06-14T06:05:23;4.90;;;2.58;;
65879;SDS011;52661;51.364;6.054;2023-06-14T06:07:48;4.70;;;1.95;;
65879;SDS011;52661;51.364;6.054;2023-06-14T06:10:14;7.25;;;2.10;;
65879;SDS011;52661;51.364;6.054;2023-06-14T06:12:40;6.78;;;2.42;;
65879;SDS011;52661;51.364;6.054;2023-06-14T06:15:06;4.90;;;1.95;;
65879;SDS011;52661;51.364;6.054;2023-06-14T06:17:32;10.95;;;2.05;;
65879;SDS011;52661;51.364;6.054;2023-06-14T06:19:58;4.50;;;1.85;;
65879;SDS011;52661;51.364;6.054;2023-06-14T06:22:24;5.07;;;1.90;;
65879;SDS011;52661;51.364;6.054;2023-06-14T06:24:49;5.47;;;1.83;;
65879;SDS011;52661;51.364;6.054;2023-06-14T06:27:15;6.97;;;2.10;;
65879;SDS011;52661;51.364;6.054;2023-06-14T06:29:41;7.15;;;2.08;;
65879;SDS011;52661;51.364;6.054;2023-06-14T06:32:08;8.30;;;2.08;;
65879;SDS011;52661;51.364;6.054;2023-06-14T06:34:34;5.60;;;2.30;;
65879;SDS011;52661;51.364;6.054;2023-06-14T06:37:00;8.32;;;1.95;;
65879;SDS011;52661;51.364;6.054;2023-06-14T06:39:26;7.43;;;2.13;;
65879;SDS011;52661;51.364;6.054;2023-06-14T06:41:51;5.18;;;2.30;;
65879;SDS011;52661;51.364;6.054;2023-06-14T06:44:16;6.68;;;2.03;;
65879;SDS011;52661;51.364;6.054;2023-06-14T06:46:43;6.57;;;2.03;;
65879;SDS011;52661;51.364;6.054;2023-06-14T06:49:08;8.15;;;2.40;;
65879;SDS011;52661;51.364;6.054;2023-06-14T06:51:36;5.85;;;2.20;;
65879;SDS011;52661;51.364;6.054;2023-06-14T06:54:02;6.32;;;3.38;;
65879;SDS011;52661;51.364;6.054;2023-06-14T06:56:28;7.15;;;2.47;;
65879;SDS011;52661;51.364;6.054;2023-06-14T06:58:53;8.85;;;2.03;;
65879;SDS011;52661;51.364;6.054;2023-06-14T07:01:19;7.97;;;2.10;;
65879;SDS011;52661;51.364;6.054;2023-06-14T07:03:44;5.25;;;1.52;;
65879;SDS011;52661;51.364;6.054;2023-06-14T07:06:10;3.72;;;1.30;;
65879;SDS011;52661;51.364;6.054;2023-06-14T07:08:36;3.83;;;1.20;;
65879;SDS011;52661;51.364;6.054;2023-06-14T07:11:03;9.52;;;1.65;;
65879;SDS011;52661;51.364;6.054;2023-06-14T07:13:29;8.25;;;1.73;;
65879;SDS011;52661;51.364;6.054;2023-06-14T07:15:57;4.45;;;1.38;;
65879;SDS011;52661;51.364;6.054;2023-06-14T07:18:23;7.90;;;1.70;;
65879;SDS011;52661;51.364;6.054;2023-06-14T07:20:49;3.08;;;1.42;;
65879;SDS011;52661;51.364;6.054;2023-06-14T07:23:15;5.28;;;1.40;;
65879;SDS011;52661;51.364;6.054;2023-06-14T07:25:40;4.55;;;1.40;;
65879;SDS011;52661;51.364;6.054;2023-06-14T07:28:05;3.65;;;1.50;;
65879;SDS011;52661;51.364;6.054;2023-06-14T07:30:32;2.85;;;1.15;;
65879;SDS011;52661;51.364;6.054;2023-06-14T07:32:57;5.40;;;2.20;;
65879;SDS011;52661;51.364;6.054;2023-06-14T07:35:23;9.18;;;1.70;;
65879;SDS011;52661;51.364;6.054;2023-06-14T07:37:48;4.40;;;1.20;;
65879;SDS011;52661;51.364;6.054;2023-06-14T07:40:15;2.90;;;0.95;;
65879;SDS011;52661;51.364;6.054;2023-06-14T07:42:40;3.55;;;1.20;;
65879;SDS011;52661;51.364;6.054;2023-06-14T07:45:07;5.10;;;1.27;;
65879;SDS011;52661;51.364;6.054;2023-06-14T07:47:33;5.30;;;1.30;;
65879;SDS011;52661;51.364;6.054;2023-06-14T07:49:58;3.60;;;1.42;;
65879;SDS011;52661;51.364;6.054;2023-06-14T07:52:24;5.43;;;1.30;;
65879;SDS011;52661;51.364;6.054;2023-06-14T07:54:50;6.55;;;1.30;;
65879;SDS011;52661;51.364;6.054;2023-06-14T07:57:15;4.43;;;1.20;;
65879;SDS011;52661;51.364;6.054;2023-06-14T07:59:40;2.95;;;1.08;;
65879;SDS011;52661;51.364;6.054;2023-06-14T08:02:06;3.50;;;1.13;;
65879;SDS011;52661;51.364;6.054;2023-06-14T08:04:32;5.65;;;1.27;;
65879;SDS011;52661;51.364;6.054;2023-06-14T08:06:58;4.60;;;0.80;;
65879;SDS011;52661;51.364;6.054;2023-06-14T08:09:24;5.97;;;1.30;;
65879;SDS011;52661;51.364;6.054;2023-06-14T08:11:50;9.25;;;0.82;;
65879;SDS011;52661;51.364;6.054;2023-06-14T08:14:15;3.47;;;1.05;;
65879;SDS011;52661;51.364;6.054;2023-06-14T08:16:41;3.65;;;0.80;;
65879;SDS011;52661;51.364;6.054;2023-06-14T08:19:07;2.58;;;1.02;;
65879;SDS011;52661;51.364;6.054;2023-06-14T08:21:33;3.97;;;0.63;;
65879;SDS011;52661;51.364;6.054;2023-06-14T08:24:01;2.38;;;0.70;;
65879;SDS011;52661;51.364;6.054;2023-06-14T08:26:27;2.25;;;0.70;;
65879;SDS011;52661;51.364;6.054;2023-06-14T08:28:54;4.00;;;0.63;;
65879;SDS011;52661;51.364;6.054;2023-06-14T08:31:20;1.85;;;0.70;;
65879;SDS011;52661;51.364;6.054;2023-06-14T08:33:45;2.35;;;0.50;;
65879;SDS011;52661;51.364;6.054;2023-06-14T08:36:11;2.30;;;1.15;;
65879;SDS011;52661;51.364;6.054;2023-06-14T08:38:37;1.20;;;0.30;;
65879;SDS011;52661;51.364;6.054;2023-06-14T08:41:02;1.58;;;0.38;;
65879;SDS011;52661;51.364;6.054;2023-06-14T08:43:30;3.97;;;0.63;;
65879;SDS011;52661;51.364;6.054;2023-06-14T08:45:58;3.22;;;0.65;;
65879;SDS011;52661;51.364;6.054;2023-06-14T08:48:26;3.17;;;0.80;;
65879;SDS011;52661;51.364;6.054;2023-06-14T08:50:51;3.88;;;0.60;;
65879;SDS011;52661;51.364;6.054;2023-06-14T08:53:26;2.03;;;0.60;;
65879;SDS011;52661;51.364;6.054;2023-06-14T08:55:54;1.75;;;0.43;;
65879;SDS011;52661;51.364;6.054;2023-06-14T08:58:20;2.50;;;0.47;;
65879;SDS011;52661;51.364;6.054;2023-06-14T09:00:49;3.63;;;0.55;;
65879;SDS011;52661;51.364;6.054;2023-06-14T09:03:17;2.85;;;0.40;;
65879;SDS011;52661;51.364;6.054;2023-06-14T09:05:45;6.93;;;0.45;;
65879;SDS011;52661;51.364;6.054;2023-06-14T09:08:11;3.08;;;0.65;;
65879;SDS011;52661;51.364;6.054;2023-06-14T09:10:36;2.22;;;0.50;;
65879;SDS011;52661;51.364;6.054;2023-06-14T09:13:02;2.17;;;0.70;;
65879;SDS011;52661;51.364;6.054;2023-06-14T09:15:32;2.97;;;0.80;;
65879;SDS011;52661;51.364;6.054;2023-06-14T09:18:00;3.72;;;0.52;;
65879;SDS011;52661;51.364;6.054;2023-06-14T09:20:28;2.88;;;0.93;;
65879;SDS011;52661;51.364;6.054;2023-06-14T09:22:55;3.55;;;0.73;;
65879;SDS011;52661;51.364;6.054;2023-06-14T09:25:20;3.63;;;0.82;;
65879;SDS011;52661;51.364;6.054;2023-06-14T09:27:46;3.13;;;0.80;;
65879;SDS011;52661;51.364;6.054;2023-06-14T09:30:12;4.72;;;0.85;;
65879;SDS011;52661;51.364;6.054;2023-06-14T09:32:41;2.15;;;0.73;;
65879;SDS011;52661;51.364;6.054;2023-06-14T09:35:07;1.98;;;0.50;;
65879;SDS011;52661;51.364;6.054;2023-06-14T09:37:33;2.00;;;0.50;;
65879;SDS011;52661;51.364;6.054;2023-06-14T09:39:59;4.22;;;0.70;;
65879;SDS011;52661;51.364;6.054;2023-06-14T09:42:25;3.15;;;0.52;;
65879;SDS011;52661;51.364;6.054;2023-06-14T09:44:53;6.32;;;1.08;;
65879;SDS011;52661;51.364;6.054;2023-06-14T09:47:20;2.72;;;0.50;;
65879;SDS011;52661;51.364;6.054;2023-06-14T09:49:46;2.22;;;1.02;;
65879;SDS011;52661;51.364;6.054;2023-06-14T09:52:21;2.63;;;0.55;;
65879;SDS011;52661;51.364;6.054;2023-06-14T09:54:48;3.42;;;1.30;;
65879;SDS011;52661;51.364;6.054;2023-06-14T09:57:15;10.27;;;2.58;;
65879;SDS011;52661;51.364;6.054;2023-06-14T09:59:43;2.22;;;0.50;;
65879;SDS011;52661;51.364;6.054;2023-06-14T10:02:11;4.47;;;0.90;;
65879;SDS011;52661;51.364;6.054;2023-06-14T10:04:46;7.97;;;0.70;;
65879;SDS011;52661;51.364;6.054;2023-06-14T10:07:17;3.22;;;0.88;;
65879;SDS011;52661;51.364;6.054;2023-06-14T10:09:44;2.13;;;0.77;;
65879;SDS011;52661;51.364;6.054;2023-06-14T10:12:15;1.67;;;0.52;;
65879;SDS011;52661;51.364;6.054;2023-06-14T10:14:46;2.17;;;0.52;;
65879;SDS011;52661;51.364;6.054;2023-06-14T10:18:01;2.17;;;0.80;;
65879;SDS011;52661;51.364;6.054;2023-06-14T10:20:10;1.60;;;0.73;;
65879;SDS011;52661;51.364;6.054;2023-06-14T10:22:47;5.55;;;0.82;;
65879;SDS011;52661;51.364;6.054;2023-06-14T10:25:26;5.40;;;1.10;;
65879;SDS011;52661;51.364;6.054;2023-06-14T10:27:53;2.28;;;0.55;;
65879;SDS011;52661;51.364;6.054;2023-06-14T10:30:18;1.95;;;0.65;;
65879;SDS011;52661;51.364;6.054;2023-06-14T10:33:06;3.20;;;0.70;;
65879;SDS011;52661;51.364;6.054;2023-06-14T10:35:32;3.47;;;1.50;;
65879;SDS011;52661;51.364;6.054;2023-06-14T10:38:08;2.75;;;0.80;;
65879;SDS011;52661;51.364;6.054;2023-06-14T10:40:36;8.63;;;1.20;;
65879;SDS011;52661;51.364;6.054;2023-06-14T10:43:20;2.63;;;0.70;;
65879;SDS011;52661;51.364;6.054;2023-06-14T10:48:41;3.15;;;0.70;;
65879;SDS011;52661;51.364;6.054;2023-06-14T10:51:15;2.22;;;0.60;;
65879;SDS011;52661;51.364;6.054;2023-06-14T10:53:47;4.50;;;1.13;;
65879;SDS011;52661;51.364;6.054;2023-06-14T10:56:23;3.08;;;0.60;;
65879;SDS011;52661;51.364;6.054;2023-06-14T10:58:52;3.17;;;0.68;;
65879;SDS011;52661;51.364;6.054;2023-06-14T11:01:23;5.40;;;0.70;;
65879;SDS011;52661;51.364;6.054;2023-06-14T11:04:08;7.70;;;0.98;;
65879;SDS011;52661;51.364;6.054;2023-06-14T11:06:59;1.60;;;0.65;;
65879;SDS011;52661;51.364;6.054;2023-06-14T11:12:04;3.55;;;2.00;;
65879;SDS011;52661;51.364;6.054;2023-06-14T11:14:35;2.42;;;0.93;;
65879;SDS011;52661;51.364;6.054;2023-06-14T11:17:00;2.90;;;1.02;;
65879;SDS011;52661;51.364;6.054;2023-06-14T11:19:26;3.15;;;0.88;;
65879;SDS011;52661;51.364;6.054;2023-06-14T11:21:53;2.13;;;1.40;;
65879;SDS011;52661;51.364;6.054;2023-06-14T11:24:19;2.33;;;0.57;;
65879;SDS011;52661;51.364;6.054;2023-06-14T11:26:46;2.60;;;0.60;;
65879;SDS011;52661;51.364;6.054;2023-06-14T11:29:12;4.38;;;0.82;;
65879;SDS011;52661;51.364;6.054;2023-06-14T11:31:43;2.17;;;0.47;;
65879;SDS011;52661;51.364;6.054;2023-06-14T11:34:09;3.00;;;0.70;;
65879;SDS011;52661;51.364;6.054;2023-06-14T11:36:35;3.72;;;0.88;;
65879;SDS011;52661;51.364;6.054;2023-06-14T11:39:04;1.90;;;0.70;;
65879;SDS011;52661;51.364;6.054;2023-06-14T11:41:42;6.22;;;1.85;;
65879;SDS011;52661;51.364;6.054;2023-06-14T11:44:08;4.55;;;0.57;;
65879;SDS011;52661;51.364;6.054;2023-06-14T11:46:35;2.30;;;0.80;;
65879;SDS011;52661;51.364;6.054;2023-06-14T11:49:01;4.80;;;0.90;;
65879;SDS011;52661;51.364;6.054;2023-06-14T11:51:32;3.22;;;0.65;;
65879;SDS011;52661;51.364;6.054;2023-06-14T11:54:00;4.32;;;0.75;;
65879;SDS011;52661;51.364;6.054;2023-06-14T11:56:27;11.35;;;1.40;;
65879;SDS011;52661;51.364;6.054;2023-06-14T11:58:53;3.15;;;0.40;;
65879;SDS011;52661;51.364;6.054;2023-06-14T12:01:22;1.27;;;0.40;;
65879;SDS011;52661;51.364;6.054;2023-06-14T12:03:51;0.90;;;0.32;;
65879;SDS011;52661;51.364;6.054;2023-06-14T12:06:28;2.88;;;0.43;;
65879;SDS011;52661;51.364;6.054;2023-06-14T12:08:57;2.83;;;0.70;;
65879;SDS011;52661;51.364;6.054;2023-06-14T12:11:23;4.05;;;0.75;;
65879;SDS011;52661;51.364;6.054;2023-06-14T12:13:49;1.88;;;0.40;;
65879;SDS011;52661;51.364;6.054;2023-06-14T12:16:14;2.15;;;0.82;;
65879;SDS011;52661;51.364;6.054;2023-06-14T12:18:40;2.03;;;0.50;;
65879;SDS011;52661;51.364;6.054;2023-06-14T12:21:09;1.75;;;0.88;;
65879;SDS011;52661;51.364;6.054;2023-06-14T12:23:48;3.47;;;0.75;;
65879;SDS011;52661;51.364;6.054;2023-06-14T12:26:15;4.70;;;0.47;;
65879;SDS011;52661;51.364;6.054;2023-06-14T12:28:41;7.18;;;1.17;;
65879;SDS011;52661;51.364;6.054;2023-06-14T12:31:11;4.65;;;0.60;;
65879;SDS011;52661;51.364;6.054;2023-06-14T12:33:38;2.97;;;0.30;;
65879;SDS011;52661;51.364;6.054;2023-06-14T12:36:04;2.35;;;0.63;;
65879;SDS011;52661;51.364;6.054;2023-06-14T12:38:32;2.75;;;0.30;;
65879;SDS011;52661;51.364;6.054;2023-06-14T12:40:58;2.28;;;0.70;;
65879;SDS011;52661;51.364;6.054;2023-06-14T12:43:23;1.85;;;0.32;;
65879;SDS011;52661;51.364;6.054;2023-06-14T12:45:49;2.85;;;0.63;;
65879;SDS011;52661;51.364;6.054;2023-06-14T12:48:14;6.07;;;0.60;;
65879;SDS011;52661;51.364;6.054;2023-06-14T12:50:40;1.90;;;0.70;;
65879;SDS011;52661;51.364;6.054;2023-06-14T12:53:06;2.97;;;0.52;;
65879;SDS011;52661;51.364;6.054;2023-06-14T12:55:32;3.67;;;0.55;;
65879;SDS011;52661;51.364;6.054;2023-06-14T12:57:57;2.40;;;0.43;;
65879;SDS011;52661;51.364;6.054;2023-06-14T13:00:23;1.67;;;0.38;;
65879;SDS011;52661;51.364;6.054;2023-06-14T13:02:50;1.88;;;0.45;;
65879;SDS011;52661;51.364;6.054;2023-06-14T13:05:16;2.42;;;0.60;;
65879;SDS011;52661;51.364;6.054;2023-06-14T13:07:42;3.95;;;0.68;;
65879;SDS011;52661;51.364;6.054;2023-06-14T13:10:07;1.95;;;0.63;;
65879;SDS011;52661;51.364;6.054;2023-06-14T13:12:33;2.60;;;0.88;;
65879;SDS011;52661;51.364;6.054;2023-06-14T13:14:58;2.58;;;0.45;;
65879;SDS011;52661;51.364;6.054;2023-06-14T13:17:24;1.88;;;0.52;;
65879;SDS011;52661;51.364;6.054;2023-06-14T13:19:49;1.63;;;0.90;;
65879;SDS011;52661;51.364;6.054;2023-06-14T13:22:15;3.53;;;0.57;;
65879;SDS011;52661;51.364;6.054;2023-06-14T13:24:40;3.78;;;0.65;;
65879;SDS011;52661;51.364;6.054;2023-06-14T13:27:06;4.00;;;0.30;;
65879;SDS011;52661;51.364;6.054;2023-06-14T13:29:31;2.85;;;0.32;;
65879;SDS011;52661;51.364;6.054;2023-06-14T13:31:58;1.52;;;1.13;;
65879;SDS011;52661;51.364;6.054;2023-06-14T13:34:24;6.35;;;0.45;;
65879;SDS011;52661;51.364;6.054;2023-06-14T13:36:49;3.47;;;1.35;;
65879;SDS011;52661;51.364;6.054;2023-06-14T13:39:15;1.60;;;0.80;;
65879;SDS011;52661;51.364;6.054;2023-06-14T13:41:41;5.75;;;0.57;;
65879;SDS011;52661;51.364;6.054;2023-06-14T13:44:06;1.50;;;0.45;;
65879;SDS011;52661;51.364;6.054;2023-06-14T13:46:31;4.18;;;0.65;;
65879;SDS011;52661;51.364;6.054;2023-06-14T13:48:57;2.50;;;0.95;;
65879;SDS011;52661;51.364;6.054;2023-06-14T13:51:23;4.35;;;1.00;;
65879;SDS011;52661;51.364;6.054;2023-06-14T13:53:49;5.50;;;0.77;;
65879;SDS011;52661;51.364;6.054;2023-06-14T13:56:15;6.45;;;0.68;;
65879;SDS011;52661;51.364;6.054;2023-06-14T13:58:41;2.45;;;0.40;;
65879;SDS011;52661;51.364;6.054;2023-06-14T14:01:07;5.28;;;0.47;;
65879;SDS011;52661;51.364;6.054;2023-06-14T14:03:33;8.05;;;0.65;;
65879;SDS011;52661;51.364;6.054;2023-06-14T14:06:00;1.70;;;0.75;;
65879;SDS011;52661;51.364;6.054;2023-06-14T14:08:29;3.42;;;0.50;;
65879;SDS011;52661;51.364;6.054;2023-06-14T14:10:55;3.22;;;0.45;;
65879;SDS011;52661;51.364;6.054;2023-06-14T14:13:21;3.80;;;0.60;;
65879;SDS011;52661;51.364;6.054;2023-06-14T14:15:46;1.75;;;0.43;;
65879;SDS011;52661;51.364;6.054;2023-06-14T14:18:12;1.52;;;0.47;;
65879;SDS011;52661;51.364;6.054;2023-06-14T14:20:37;2.60;;;0.85;;
65879;SDS011;52661;51.364;6.054;2023-06-14T14:23:03;3.42;;;1.35;;
65879;SDS011;52661;51.364;6.054;2023-06-14T14:25:28;4.40;;;0.88;;
65879;SDS011;52661;51.364;6.054;2023-06-14T14:27:53;2.55;;;0.65;;
65879;SDS011;52661;51.364;6.054;2023-06-14T14:30:19;2.20;;;0.65;;
65879;SDS011;52661;51.364;6.054;2023-06-14T14:32:48;6.70;;;1.00;;
65879;SDS011;52661;51.364;6.054;2023-06-14T14:35:14;3.00;;;0.70;;
65879;SDS011;52661;51.364;6.054;2023-06-14T14:37:40;3.47;;;0.63;;
65879;SDS011;52661;51.364;6.054;2023-06-14T14:40:06;1.73;;;0.57;;
65879;SDS011;52661;51.364;6.054;2023-06-14T14:42:32;3.13;;;0.77;;
65879;SDS011;52661;51.364;6.054;2023-06-14T14:44:57;3.63;;;2.15;;
65879;SDS011;52661;51.364;6.054;2023-06-14T14:47:22;2.78;;;1.10;;
65879;SDS011;52661;51.364;6.054;2023-06-14T14:49:48;2.78;;;1.38;;
65879;SDS011;52661;51.364;6.054;2023-06-14T14:52:13;3.88;;;0.90;;
65879;SDS011;52661;51.364;6.054;2023-06-14T14:54:39;3.70;;;1.02;;